createdAt,value
2024-01-06T00:00:13.904Z,569.00
2024-01-06T00:01:13.941Z,568.00
2024-01-06T00:02:13.935Z,568.00
2024-01-06T00:03:13.974Z,568.00
2024-01-06T00:04:14.038Z,570.00
2024-01-06T00:05:13.987Z,571.00
2024-01-06T00:06:14.058Z,570.00
2024-01-06T00:07:14.083Z,570.00
2024-01-06T00:08:14.081Z,572.00
2024-01-06T00:09:14.096Z,571.00
2024-01-06T00:10:17.554Z,573.00
2024-01-06T00:11:14.164Z,573.00
2024-01-06T00:12:14.151Z,572.00
2024-01-06T00:13:14.152Z,572.00
2024-01-06T00:14:14.133Z,571.00
2024-01-06T00:15:14.230Z,570.00
2024-01-06T00:16:14.139Z,569.00
2024-01-06T00:17:14.151Z,569.00
2024-01-06T00:18:14.410Z,568.00
2024-01-06T00:19:14.155Z,569.00
2024-01-06T00:20:14.184Z,569.00
2024-01-06T00:21:14.199Z,569.00
2024-01-06T00:22:14.181Z,572.00
2024-01-06T00:23:14.194Z,572.00
2024-01-06T00:24:14.159Z,573.00
2024-01-06T00:25:14.158Z,572.00
2024-01-06T00:26:14.166Z,571.00
2024-01-06T00:27:14.179Z,571.00
2024-01-06T00:28:14.189Z,569.00
2024-01-06T00:29:14.181Z,568.00
2024-01-06T00:30:14.245Z,568.00
2024-01-06T00:31:14.242Z,569.00
2024-01-06T00:32:14.165Z,569.00
2024-01-06T00:33:14.337Z,568.00
2024-01-06T00:34:14.237Z,568.00
2024-01-06T00:35:14.177Z,566.00
2024-01-06T00:36:14.216Z,567.00
2024-01-06T00:37:14.177Z,564.00
2024-01-06T00:38:14.188Z,565.00
2024-01-06T00:39:14.180Z,565.00
2024-01-06T00:40:14.151Z,565.00
2024-01-06T00:41:14.170Z,567.00
2024-01-06T00:42:14.266Z,566.00
2024-01-06T00:43:14.180Z,566.00
2024-01-06T00:44:14.201Z,564.00
2024-01-06T00:45:14.206Z,566.00
2024-01-06T00:46:14.222Z,564.00
2024-01-06T00:47:14.251Z,564.00
2024-01-06T00:48:14.370Z,563.00
2024-01-06T00:49:14.278Z,560.00
2024-01-06T00:50:14.221Z,561.00
2024-01-06T00:51:14.267Z,560.00
2024-01-06T00:52:14.179Z,559.00
2024-01-06T00:53:14.215Z,562.00
2024-01-06T00:54:14.251Z,562.00
2024-01-06T00:55:14.303Z,561.00
2024-01-06T00:56:14.358Z,561.00
2024-01-06T00:57:14.463Z,563.00
2024-01-06T00:58:14.741Z,564.00
2024-01-06T00:59:14.489Z,562.00
2024-01-06T01:00:14.582Z,562.00
2024-01-06T01:01:14.691Z,564.00
2024-01-06T01:02:14.557Z,562.00
2024-01-06T01:03:14.788Z,560.00
2024-01-06T01:04:14.781Z,562.00
2024-01-06T01:05:14.820Z,564.00
2024-01-06T01:06:14.827Z,566.00
2024-01-06T01:07:14.863Z,565.00
2024-01-06T01:08:15.229Z,567.00
2024-01-06T01:09:14.986Z,568.00
2024-01-06T01:10:15.046Z,568.00
2024-01-06T01:11:15.083Z,567.00
2024-01-06T01:12:15.171Z,567.00
2024-01-06T01:13:15.842Z,566.00
2024-01-06T01:14:15.257Z,565.00
2024-01-06T01:15:15.328Z,564.00
2024-01-06T01:16:15.339Z,567.00
2024-01-06T01:17:15.386Z,565.00
2024-01-06T01:18:16.133Z,564.00
2024-01-06T01:19:15.559Z,561.00
2024-01-06T01:20:15.557Z,563.00
2024-01-06T01:21:15.622Z,563.00
2024-01-06T01:22:15.675Z,566.00
2024-01-06T01:23:15.739Z,566.00
2024-01-06T01:24:15.811Z,568.00
2024-01-06T01:25:15.846Z,569.00
2024-01-06T01:26:15.957Z,569.00
2024-01-06T01:27:16.024Z,567.00
2024-01-06T01:28:16.047Z,567.00
2024-01-06T01:29:16.081Z,567.00
2024-01-06T01:30:16.234Z,566.00
2024-01-06T01:31:16.334Z,567.00
2024-01-06T01:32:17.339Z,565.00
2024-01-06T01:33:16.646Z,567.00
2024-01-06T01:34:16.557Z,567.00
2024-01-06T01:35:16.495Z,565.00
2024-01-06T01:36:16.566Z,567.00
2024-01-06T01:37:16.622Z,568.00
2024-01-06T01:38:16.699Z,569.00
2024-01-06T01:39:16.755Z,568.00
2024-01-06T01:40:16.917Z,566.00
2024-01-06T01:41:16.860Z,566.00
2024-01-06T01:42:16.951Z,566.00
2024-01-06T01:43:16.931Z,565.00
2024-01-06T01:44:16.957Z,566.00
2024-01-06T01:45:17.054Z,565.00
2024-01-06T01:46:17.033Z,562.00
2024-01-06T01:47:17.075Z,561.00
2024-01-06T01:48:17.298Z,560.00
2024-01-06T01:49:17.351Z,564.00
2024-01-06T01:50:17.188Z,565.00
2024-01-06T01:51:17.227Z,563.00
2024-01-06T01:52:17.266Z,562.00
2024-01-06T01:53:17.316Z,563.00
2024-01-06T01:54:17.352Z,562.00
2024-01-06T01:55:17.394Z,562.00
2024-01-06T01:56:17.432Z,561.00
2024-01-06T01:57:17.548Z,561.00
2024-01-06T01:58:17.648Z,561.00
2024-01-06T01:59:17.627Z,563.00
2024-01-06T02:00:17.704Z,561.00
2024-01-06T02:01:17.865Z,560.00
2024-01-06T02:02:17.810Z,561.00
2024-01-06T02:03:17.903Z,563.00
2024-01-06T02:04:17.923Z,561.00
2024-01-06T02:05:18.037Z,561.00
2024-01-06T02:06:18.056Z,562.00
2024-01-06T02:07:18.048Z,564.00
2024-01-06T02:08:18.089Z,564.00
2024-01-06T02:09:18.188Z,565.00
2024-01-06T02:10:18.220Z,564.00
2024-01-06T02:11:18.251Z,565.00
2024-01-06T02:12:18.390Z,566.00
2024-01-06T02:13:18.379Z,563.00
2024-01-06T02:14:18.414Z,564.00
2024-01-06T02:15:18.500Z,564.00
2024-01-06T02:16:18.561Z,563.00
2024-01-06T02:17:18.618Z,561.00
2024-01-06T02:18:18.758Z,561.00
2024-01-06T02:19:18.811Z,562.00
2024-01-06T02:20:18.802Z,564.00
2024-01-06T02:21:18.947Z,564.00
2024-01-06T02:22:18.919Z,562.00
2024-01-06T02:23:18.939Z,560.00
2024-01-06T02:24:19.058Z,560.00
2024-01-06T02:25:19.064Z,558.00
2024-01-06T02:26:19.136Z,556.00
2024-01-06T02:27:19.221Z,556.00
2024-01-06T02:28:19.300Z,556.00
2024-01-06T02:29:19.366Z,556.00
2024-01-06T02:30:19.481Z,556.00
2024-01-06T02:31:19.577Z,556.00
2024-01-06T02:32:19.540Z,555.00
2024-01-06T02:33:19.674Z,554.00
2024-01-06T02:34:19.782Z,554.00
2024-01-06T02:35:19.661Z,551.00
2024-01-06T02:36:19.748Z,550.00
2024-01-06T02:37:19.790Z,554.00
2024-01-06T02:38:19.856Z,556.00
2024-01-06T02:39:19.882Z,558.00
2024-01-06T02:40:19.885Z,559.00
2024-01-06T02:41:19.956Z,558.00
2024-01-06T02:42:20.037Z,555.00
2024-01-06T02:43:20.081Z,553.00
2024-01-06T02:44:20.121Z,553.00
2024-01-06T02:45:20.270Z,554.00
2024-01-06T02:46:20.231Z,554.00
2024-01-06T02:47:20.305Z,555.00
2024-01-06T02:48:20.453Z,553.00
2024-01-06T02:49:20.553Z,550.00
2024-01-06T02:50:20.479Z,552.00
2024-01-06T02:51:20.670Z,552.00
2024-01-06T02:52:20.583Z,552.00
2024-01-06T02:53:20.685Z,551.00
2024-01-06T02:54:20.797Z,552.00
2024-01-06T02:55:20.772Z,553.00
2024-01-06T02:56:20.910Z,552.00
2024-01-06T02:57:20.986Z,554.00
2024-01-06T02:58:21.034Z,552.00
2024-01-06T02:59:21.118Z,552.00
2024-01-06T03:00:21.203Z,550.00
2024-01-06T03:01:21.292Z,550.00
2024-01-06T03:02:21.264Z,552.00
2024-01-06T03:03:21.438Z,550.00
2024-01-06T03:04:21.536Z,551.00
2024-01-06T03:05:21.490Z,551.00
2024-01-06T03:06:21.668Z,551.00
2024-01-06T03:07:21.606Z,554.00
2024-01-06T03:08:21.655Z,554.00
2024-01-06T03:09:21.757Z,553.00
2024-01-06T03:10:21.810Z,554.00
2024-01-06T03:11:21.869Z,554.00
2024-01-06T03:12:21.982Z,553.00
2024-01-06T03:13:22.033Z,552.00
2024-01-06T03:14:22.068Z,551.00
2024-01-06T03:15:22.196Z,550.00
2024-01-06T03:16:22.363Z,549.00
2024-01-06T03:17:22.295Z,548.00
2024-01-06T03:18:22.459Z,550.00
2024-01-06T03:19:22.571Z,549.00
2024-01-06T03:20:22.513Z,548.00
2024-01-06T03:21:22.587Z,544.00
2024-01-06T03:22:22.631Z,546.00
2024-01-06T03:23:22.738Z,546.00
2024-01-06T03:24:22.767Z,548.00
2024-01-06T03:25:22.881Z,549.00
2024-01-06T03:26:22.905Z,551.00
2024-01-06T03:27:22.976Z,551.00
2024-01-06T03:28:23.066Z,550.00
2024-01-06T03:29:23.118Z,549.00
2024-01-06T03:30:23.909Z,550.00
2024-01-06T03:31:23.291Z,551.00
2024-01-06T03:32:23.360Z,552.00
2024-01-06T03:33:23.501Z,553.00
2024-01-06T03:34:23.576Z,555.00
2024-01-06T03:35:23.571Z,554.00
2024-01-06T03:36:23.715Z,556.00
2024-01-06T03:37:23.809Z,554.00
2024-01-06T03:38:23.748Z,553.00
2024-01-06T03:39:23.842Z,553.00
2024-01-06T03:40:23.856Z,551.00
2024-01-06T03:41:23.979Z,552.00
2024-01-06T03:42:24.030Z,553.00
2024-01-06T03:43:24.136Z,555.00
2024-01-06T03:44:24.162Z,556.00
2024-01-06T03:45:24.271Z,554.00
2024-01-06T03:46:24.310Z,555.00
2024-01-06T03:47:24.482Z,554.00
2024-01-06T03:48:24.586Z,552.00
2024-01-06T03:49:24.561Z,549.00
2024-01-06T03:50:24.589Z,548.00
2024-01-06T03:51:24.811Z,548.00
2024-01-06T03:52:24.791Z,549.00
2024-01-06T03:53:26.999Z,550.00
2024-01-06T03:54:25.034Z,552.00
2024-01-06T03:55:25.124Z,550.00
2024-01-06T03:56:25.162Z,549.00
2024-01-06T03:57:25.279Z,545.00
2024-01-06T03:58:25.258Z,548.00
2024-01-06T03:59:25.342Z,550.00
2024-01-06T04:00:25.537Z,553.00
2024-01-06T04:01:25.629Z,553.00
2024-01-06T04:02:25.566Z,555.00
2024-01-06T04:03:25.628Z,555.00
2024-01-06T04:04:25.784Z,554.00
2024-01-06T04:05:25.792Z,553.00
2024-01-06T04:06:25.835Z,550.00
2024-01-06T04:07:25.893Z,550.00
2024-01-06T04:08:25.962Z,549.00
2024-01-06T04:09:26.042Z,549.00
2024-01-06T04:10:26.138Z,549.00
2024-01-06T04:11:26.158Z,550.00
2024-01-06T04:12:26.288Z,551.00
2024-01-06T04:13:26.345Z,551.00
2024-01-06T04:14:26.389Z,550.00
2024-01-06T04:15:26.503Z,547.00
2024-01-06T04:16:26.541Z,549.00
2024-01-06T04:17:26.630Z,550.00
2024-01-06T04:18:27.079Z,550.00
2024-01-06T04:19:26.772Z,548.00
2024-01-06T04:20:26.806Z,547.00
2024-01-06T04:21:26.902Z,544.00
2024-01-06T04:22:26.876Z,545.00
2024-01-06T04:23:26.983Z,544.00
2024-01-06T04:24:27.104Z,544.00
2024-01-06T04:25:27.154Z,544.00
2024-01-06T04:26:27.198Z,544.00
2024-01-06T04:27:27.240Z,542.00
2024-01-06T04:28:27.310Z,543.00
2024-01-06T04:29:27.388Z,545.00
2024-01-06T04:30:27.581Z,545.00
2024-01-06T04:31:27.605Z,548.00
2024-01-06T04:32:27.631Z,548.00
2024-01-06T04:33:27.880Z,547.00
2024-01-06T04:34:27.876Z,547.00
2024-01-06T04:35:27.795Z,545.00
2024-01-06T04:36:27.911Z,544.00
2024-01-06T04:37:35.142Z,542.00
2024-01-06T04:38:35.129Z,541.00
2024-01-06T04:39:37.697Z,544.00
2024-01-06T04:40:35.144Z,547.00
2024-01-06T04:41:35.159Z,549.00
2024-01-06T04:42:35.203Z,549.00
2024-01-06T04:43:35.283Z,550.00
2024-01-06T04:44:35.192Z,551.00
2024-01-06T04:45:35.213Z,554.00
2024-01-06T04:46:35.109Z,553.00
2024-01-06T04:47:35.178Z,549.00
2024-01-06T04:48:35.308Z,549.00
2024-01-06T04:49:35.234Z,547.00
2024-01-06T04:50:35.128Z,546.00
2024-01-06T04:51:35.160Z,546.00
2024-01-06T04:52:35.160Z,547.00
2024-01-06T04:53:35.198Z,547.00
2024-01-06T04:54:35.163Z,547.00
2024-01-06T04:55:35.165Z,546.00
2024-01-06T04:56:36.955Z,548.00
2024-01-06T04:57:35.208Z,548.00
2024-01-06T04:58:35.154Z,550.00
2024-01-06T04:59:35.178Z,550.00
2024-01-06T05:00:35.256Z,554.00
2024-01-06T05:01:35.197Z,556.00
2024-01-06T05:02:35.190Z,558.00
2024-01-06T05:03:35.325Z,560.00
2024-01-06T05:04:35.267Z,560.00
2024-01-06T05:05:35.353Z,559.00
2024-01-06T05:06:35.425Z,556.00
2024-01-06T05:07:35.439Z,553.00
2024-01-06T05:08:35.542Z,553.00
2024-01-06T05:09:35.572Z,552.00
2024-01-06T05:10:35.666Z,551.00
2024-01-06T05:11:35.675Z,550.00
2024-01-06T05:12:35.793Z,549.00
2024-01-06T05:13:35.852Z,550.00
2024-01-06T05:14:35.921Z,552.00
2024-01-06T05:15:36.704Z,554.00
2024-01-06T05:16:36.028Z,550.00
2024-01-06T05:17:37.179Z,547.00
2024-01-06T05:18:36.146Z,545.00
2024-01-06T05:19:36.065Z,547.00
2024-01-06T05:20:36.035Z,547.00
2024-01-06T05:21:36.082Z,550.00
2024-01-06T05:22:36.037Z,549.00
2024-01-06T05:23:36.071Z,548.00
2024-01-06T05:24:36.097Z,549.00
2024-01-06T05:25:36.051Z,548.00
2024-01-06T05:26:36.077Z,550.00
2024-01-06T05:27:36.212Z,549.00
2024-01-06T05:28:36.198Z,550.00
2024-01-06T05:29:36.233Z,548.00
2024-01-06T05:30:36.383Z,547.00
2024-01-06T05:31:36.486Z,548.00
2024-01-06T05:32:36.448Z,550.00
2024-01-06T05:33:36.524Z,551.00
2024-01-06T05:34:36.787Z,549.00
2024-01-06T05:35:36.584Z,549.00
2024-01-06T05:36:36.657Z,548.00
2024-01-06T05:37:36.733Z,546.00
2024-01-06T05:38:36.796Z,547.00
2024-01-06T05:39:36.904Z,547.00
2024-01-06T05:40:36.921Z,547.00
2024-01-06T05:41:37.017Z,548.00
2024-01-06T05:42:37.098Z,548.00
2024-01-06T05:43:37.119Z,548.00
2024-01-06T05:44:37.164Z,547.00
2024-01-06T05:45:37.258Z,548.00
2024-01-06T05:46:37.320Z,548.00
2024-01-06T05:47:37.550Z,547.00
2024-01-06T05:48:37.561Z,550.00
2024-01-06T05:49:37.588Z,551.00
2024-01-06T05:50:37.555Z,553.00
2024-01-06T05:51:37.631Z,552.00
2024-01-06T05:52:37.651Z,549.00
2024-01-06T05:53:37.725Z,548.00
2024-01-06T05:54:37.858Z,546.00
2024-01-06T05:55:37.903Z,546.00
2024-01-06T05:56:37.931Z,549.00
2024-01-06T05:57:37.996Z,550.00
2024-01-06T05:58:38.055Z,549.00
2024-01-06T05:59:38.114Z,546.00
2024-01-06T06:00:38.195Z,544.00
2024-01-06T06:01:38.241Z,541.00
2024-01-06T06:02:38.263Z,542.00
2024-01-06T06:03:38.396Z,541.00
2024-01-06T06:04:38.473Z,538.00
2024-01-06T06:05:38.440Z,538.00
2024-01-06T06:06:38.542Z,539.00
2024-01-06T06:07:38.542Z,539.00
2024-01-06T06:08:38.643Z,538.00
2024-01-06T06:09:38.679Z,540.00
2024-01-06T06:10:38.832Z,538.00
2024-01-06T06:11:38.846Z,538.00
2024-01-06T06:12:38.861Z,538.00
2024-01-06T06:13:38.919Z,538.00
2024-01-06T06:14:38.952Z,537.00
2024-01-06T06:15:39.084Z,536.00
2024-01-06T06:16:39.113Z,539.00
2024-01-06T06:17:39.334Z,539.00
2024-01-06T06:18:39.362Z,539.00
2024-01-06T06:19:39.490Z,539.00
2024-01-06T06:20:39.331Z,537.00
2024-01-06T06:21:39.432Z,533.00
2024-01-06T06:22:39.460Z,534.00
2024-01-06T06:23:39.531Z,536.00
2024-01-06T06:24:39.600Z,537.00
2024-01-06T06:25:39.678Z,536.00
2024-01-06T06:26:42.264Z,535.00
2024-01-06T06:27:39.920Z,535.00
2024-01-06T06:28:39.690Z,534.00
2024-01-06T06:29:39.692Z,535.00
2024-01-06T06:30:39.745Z,539.00
2024-01-06T06:31:39.784Z,539.00
2024-01-06T06:32:39.769Z,540.00
2024-01-06T06:33:39.849Z,541.00
2024-01-06T06:34:39.698Z,540.00
2024-01-06T06:35:39.669Z,540.00
2024-01-06T06:36:39.818Z,540.00
2024-01-06T06:37:39.684Z,537.00
2024-01-06T06:38:39.745Z,539.00
2024-01-06T06:39:39.761Z,539.00
2024-01-06T06:40:39.728Z,538.00
2024-01-06T06:41:39.720Z,541.00
2024-01-06T06:42:39.771Z,540.00
2024-01-06T06:43:39.748Z,540.00
2024-01-06T06:44:39.704Z,541.00
2024-01-06T06:45:39.735Z,541.00
2024-01-06T06:46:39.714Z,542.00
2024-01-06T06:47:39.865Z,542.00
2024-01-06T06:48:39.851Z,541.00
2024-01-06T06:49:39.824Z,542.00
2024-01-06T06:50:40.312Z,542.00
2024-01-06T06:51:39.795Z,542.00
2024-01-06T06:52:39.766Z,542.00
2024-01-06T06:53:39.768Z,545.00
2024-01-06T06:54:39.775Z,546.00
2024-01-06T06:55:39.803Z,548.00
2024-01-06T06:56:39.710Z,548.00
2024-01-06T06:57:39.771Z,549.00
2024-01-06T06:58:39.745Z,550.00
2024-01-06T06:59:39.764Z,550.00
2024-01-06T07:00:39.949Z,549.00
2024-01-06T07:01:39.740Z,547.00
2024-01-06T07:02:39.782Z,548.00
2024-01-06T07:03:39.807Z,547.00
2024-01-06T07:04:39.805Z,548.00
2024-01-06T07:05:39.914Z,548.00
2024-01-06T07:06:39.958Z,546.00
2024-01-06T07:07:39.984Z,548.00
2024-01-06T07:08:40.101Z,547.00
2024-01-06T07:09:40.157Z,549.00
2024-01-06T07:10:40.179Z,551.00
2024-01-06T07:11:40.287Z,551.00
2024-01-06T07:12:40.413Z,552.00
2024-01-06T07:13:40.411Z,550.00
2024-01-06T07:14:40.466Z,550.00
2024-01-06T07:15:40.552Z,550.00
2024-01-06T07:16:40.597Z,549.00
2024-01-06T07:17:40.793Z,551.00
2024-01-06T07:18:40.839Z,552.00
2024-01-06T07:19:40.837Z,551.00
2024-01-06T07:20:40.822Z,549.00
2024-01-06T07:21:40.946Z,549.00
2024-01-06T07:22:40.986Z,552.00
2024-01-06T07:23:41.022Z,551.00
2024-01-06T07:24:41.135Z,552.00
2024-01-06T07:25:41.169Z,551.00
2024-01-06T07:26:41.252Z,550.00
2024-01-06T07:27:41.331Z,551.00
2024-01-06T07:28:41.399Z,550.00
2024-01-06T07:29:41.442Z,549.00
2024-01-06T07:30:41.542Z,549.00
2024-01-06T07:31:41.723Z,548.00
2024-01-06T07:32:41.652Z,550.00
2024-01-06T07:33:41.783Z,549.00
2024-01-06T07:34:41.774Z,550.00
2024-01-06T07:35:41.793Z,549.00
2024-01-06T07:36:41.890Z,549.00
2024-01-06T07:37:41.975Z,548.00
2024-01-06T07:38:42.022Z,547.00
2024-01-06T07:39:49.419Z,556.00
2024-01-06T07:40:49.268Z,555.00
2024-01-06T07:41:49.285Z,551.00
2024-01-06T07:42:49.434Z,552.00
2024-01-06T07:43:49.299Z,549.00
2024-01-06T07:44:49.254Z,547.00
2024-01-06T07:45:49.310Z,548.00
2024-01-06T07:46:49.268Z,547.00
2024-01-06T07:47:49.339Z,547.00
2024-01-06T07:48:49.348Z,547.00
2024-01-06T07:49:49.343Z,547.00
2024-01-06T07:50:49.285Z,548.00
2024-01-06T07:51:49.399Z,548.00
2024-01-06T07:52:49.269Z,549.00
2024-01-06T07:53:49.323Z,548.00
2024-01-06T07:54:49.359Z,547.00
2024-01-06T07:55:49.275Z,549.00
2024-01-06T07:56:49.281Z,549.00
2024-01-06T07:57:49.327Z,546.00
2024-01-06T07:58:49.409Z,545.00
2024-01-06T07:59:49.469Z,546.00
2024-01-06T08:00:49.710Z,546.00
2024-01-06T08:01:49.608Z,542.00
2024-01-06T08:02:49.625Z,541.00
2024-01-06T08:03:49.804Z,541.00
2024-01-06T08:04:50.033Z,541.00
2024-01-06T08:05:49.891Z,541.00
2024-01-06T08:06:51.279Z,539.00
2024-01-06T08:07:49.976Z,539.00
2024-01-06T08:08:50.077Z,539.00
2024-01-06T08:09:50.118Z,540.00
2024-01-06T08:10:50.186Z,540.00
2024-01-06T08:11:50.252Z,540.00
2024-01-06T08:12:50.330Z,543.00
2024-01-06T08:13:50.433Z,546.00
2024-01-06T08:14:50.485Z,548.00
2024-01-06T08:15:50.708Z,546.00
2024-01-06T08:16:50.608Z,546.00
2024-01-06T08:17:50.924Z,547.00
2024-01-06T08:18:50.850Z,545.00
2024-01-06T08:19:51.010Z,546.00
2024-01-06T08:20:50.872Z,547.00
2024-01-06T08:21:50.985Z,549.00
2024-01-06T08:22:51.104Z,549.00
2024-01-06T08:23:51.114Z,548.00
2024-01-06T08:24:51.289Z,549.00
2024-01-06T08:25:51.206Z,548.00
2024-01-06T08:26:51.281Z,549.00
2024-01-06T08:27:51.398Z,546.00
2024-01-06T08:28:51.418Z,543.00
2024-01-06T08:29:51.529Z,542.00
2024-01-06T08:30:51.770Z,544.00
2024-01-06T08:31:51.760Z,543.00
2024-01-06T08:32:51.733Z,545.00
2024-01-06T08:33:51.965Z,546.00
2024-01-06T08:34:51.874Z,547.00
2024-01-06T08:35:51.871Z,547.00
2024-01-06T08:36:52.039Z,544.00
2024-01-06T08:37:51.992Z,542.00
2024-01-06T08:38:52.078Z,541.00
2024-01-06T08:39:52.181Z,543.00
2024-01-06T08:40:52.228Z,544.00
2024-01-06T08:41:52.308Z,546.00
2024-01-06T08:42:52.404Z,548.00
2024-01-06T08:43:52.428Z,547.00
2024-01-06T08:44:52.497Z,545.00
2024-01-06T08:45:52.743Z,544.00
2024-01-06T08:46:52.641Z,544.00
2024-01-06T08:47:52.807Z,542.00
2024-01-06T08:48:52.926Z,542.00
2024-01-06T08:49:53.029Z,541.00
2024-01-06T08:50:52.940Z,543.00
2024-01-06T08:51:53.019Z,543.00
2024-01-06T08:52:52.994Z,543.00
2024-01-06T08:53:53.110Z,544.00
2024-01-06T08:54:53.208Z,547.00
2024-01-06T08:55:53.225Z,547.00
2024-01-06T08:56:53.278Z,549.00
2024-01-06T08:57:53.379Z,552.00
2024-01-06T08:58:53.405Z,551.00
2024-01-06T08:59:53.453Z,550.00
2024-01-06T09:00:53.630Z,548.00
2024-01-06T09:01:53.658Z,548.00
2024-01-06T09:02:53.652Z,548.00
2024-01-06T09:03:53.804Z,547.00
2024-01-06T09:04:53.813Z,547.00
2024-01-06T09:05:53.978Z,545.00
2024-01-06T09:06:53.996Z,546.00
2024-01-06T09:07:55.328Z,547.00
2024-01-06T09:08:54.088Z,541.00
2024-01-06T09:09:54.302Z,540.00
2024-01-06T09:10:54.196Z,540.00
2024-01-06T09:11:54.322Z,538.00
2024-01-06T09:12:54.441Z,536.00
2024-01-06T09:13:54.427Z,538.00
2024-01-06T09:14:54.480Z,537.00
2024-01-06T09:15:54.697Z,536.00
2024-01-06T09:16:54.590Z,538.00
2024-01-06T09:17:54.713Z,537.00
2024-01-06T09:18:54.883Z,536.00
2024-01-06T09:19:54.836Z,536.00
2024-01-06T09:20:54.882Z,538.00
2024-01-06T09:21:54.997Z,539.00
2024-01-06T09:22:54.993Z,538.00
2024-01-06T09:23:55.052Z,538.00
2024-01-06T09:24:55.235Z,537.00
2024-01-06T09:25:55.246Z,537.00
2024-01-06T09:26:55.282Z,534.00
2024-01-06T09:27:55.538Z,533.00
2024-01-06T09:28:55.453Z,534.00
2024-01-06T09:29:55.465Z,536.00
2024-01-06T09:30:56.477Z,539.00
2024-01-06T09:31:55.601Z,538.00
2024-01-06T09:32:55.699Z,538.00
2024-01-06T09:33:55.743Z,538.00
2024-01-06T09:34:55.941Z,538.00
2024-01-06T09:35:55.899Z,537.00
2024-01-06T09:36:56.091Z,538.00
2024-01-06T09:37:55.990Z,540.00
2024-01-06T09:38:56.090Z,540.00
2024-01-06T09:39:56.180Z,540.00
2024-01-06T09:40:56.198Z,541.00
2024-01-06T09:41:56.305Z,539.00
2024-01-06T09:42:56.475Z,537.00
2024-01-06T09:43:56.401Z,536.00
2024-01-06T09:44:56.454Z,534.00
2024-01-06T09:45:56.592Z,536.00
2024-01-06T09:46:56.550Z,536.00
2024-01-06T09:47:56.697Z,537.00
2024-01-06T09:48:56.943Z,538.00
2024-01-06T09:49:56.962Z,537.00
2024-01-06T09:50:56.859Z,537.00
2024-01-06T09:51:57.029Z,538.00
2024-01-06T09:52:56.941Z,539.00
2024-01-06T09:53:57.018Z,540.00
2024-01-06T09:54:57.465Z,540.00
2024-01-06T09:55:57.180Z,537.00
2024-01-06T09:56:57.240Z,536.00
2024-01-06T09:57:57.430Z,539.00
2024-01-06T09:58:57.455Z,540.00
2024-01-06T09:59:57.426Z,543.00
2024-01-06T10:00:57.519Z,544.00
2024-01-06T10:01:57.616Z,545.00
2024-01-06T10:02:57.646Z,546.00
2024-01-06T10:03:57.795Z,546.00
2024-01-06T10:04:57.818Z,544.00
2024-01-06T10:05:57.842Z,544.00
2024-01-06T10:06:57.979Z,544.00
2024-01-06T10:07:58.002Z,543.00
2024-01-06T10:08:58.046Z,541.00
2024-01-06T10:09:58.139Z,541.00
2024-01-06T10:10:58.150Z,539.00
2024-01-06T10:11:58.222Z,540.00
2024-01-06T10:12:58.293Z,542.00
2024-01-06T10:13:58.371Z,544.00
2024-01-06T10:14:58.414Z,543.00
2024-01-06T10:15:58.563Z,545.00
2024-01-06T10:16:58.556Z,546.00
2024-01-06T10:17:58.691Z,544.00
2024-01-06T10:18:58.796Z,543.00
2024-01-06T10:19:58.938Z,543.00
2024-01-06T10:20:58.812Z,540.00
2024-01-06T10:21:58.954Z,539.00
2024-01-06T10:22:59.074Z,539.00
2024-01-06T10:23:59.021Z,538.00
2024-01-06T10:24:59.107Z,538.00
2024-01-06T10:26:01.089Z,535.00
2024-01-06T10:26:59.161Z,536.00
2024-01-06T10:27:59.178Z,536.00
2024-01-06T10:28:59.168Z,535.00
2024-01-06T10:29:59.173Z,537.00
2024-01-06T10:30:59.315Z,537.00
2024-01-06T10:31:59.147Z,537.00
2024-01-06T10:32:59.179Z,537.00
2024-01-06T10:33:59.279Z,536.00
2024-01-06T10:34:59.149Z,536.00
2024-01-06T10:35:59.159Z,534.00
2024-01-06T10:36:59.252Z,536.00
2024-01-06T10:37:59.152Z,538.00
2024-01-06T10:38:59.155Z,538.00
2024-01-06T10:39:59.187Z,539.00
2024-01-06T10:40:59.140Z,539.00
2024-01-06T10:41:59.149Z,541.00
2024-01-06T10:42:59.224Z,542.00
2024-01-06T10:43:59.184Z,543.00
2024-01-06T10:44:59.180Z,542.00
2024-01-06T10:45:59.392Z,541.00
2024-01-06T10:46:59.182Z,543.00
2024-01-06T10:47:59.235Z,545.00
2024-01-06T10:48:59.248Z,547.00
2024-01-06T10:50:01.598Z,548.00
2024-01-06T10:50:59.204Z,548.00
2024-01-06T10:51:59.196Z,548.00
2024-01-06T10:52:59.168Z,547.00
2024-01-06T10:53:59.181Z,546.00
2024-01-06T10:54:59.241Z,547.00
2024-01-06T10:55:59.190Z,548.00
2024-01-06T10:56:59.178Z,547.00
2024-01-06T10:57:59.247Z,545.00
2024-01-06T10:58:59.188Z,543.00
2024-01-06T10:59:59.176Z,540.00
2024-01-06T11:00:59.247Z,539.00
2024-01-06T11:01:59.248Z,539.00
2024-01-06T11:02:59.221Z,538.00
2024-01-06T11:03:59.305Z,539.00
2024-01-06T11:04:59.196Z,541.00
2024-01-06T11:05:59.222Z,543.00
2024-01-06T11:06:59.235Z,540.00
2024-01-06T11:07:59.184Z,541.00
2024-01-06T11:08:59.451Z,542.00
2024-01-06T11:09:59.200Z,543.00
2024-01-06T11:10:59.169Z,543.00
2024-01-06T11:11:59.207Z,542.00
2024-01-06T11:12:59.220Z,539.00
2024-01-06T11:13:59.217Z,538.00
2024-01-06T11:14:59.196Z,540.00
2024-01-06T11:15:59.311Z,540.00
2024-01-06T11:16:59.224Z,539.00
2024-01-06T11:17:59.524Z,536.00
2024-01-06T11:18:59.341Z,536.00
2024-01-06T11:19:59.380Z,538.00
2024-01-06T11:20:59.210Z,539.00
2024-01-06T11:21:59.331Z,539.00
2024-01-06T11:22:59.218Z,538.00
2024-01-06T11:23:59.219Z,541.00
2024-01-06T11:24:59.339Z,540.00
2024-01-06T11:25:59.234Z,541.00
2024-01-06T11:26:59.208Z,542.00
2024-01-06T11:27:59.362Z,540.00
2024-01-06T11:28:59.326Z,540.00
2024-01-06T11:29:59.484Z,539.00
2024-01-06T11:30:59.520Z,538.00
2024-01-06T11:31:59.694Z,539.00
2024-01-06T11:32:59.685Z,539.00
2024-01-06T11:33:59.756Z,539.00
2024-01-06T11:34:59.820Z,539.00
2024-01-06T11:35:59.812Z,538.00
2024-01-06T11:36:59.914Z,538.00
2024-01-06T11:37:59.938Z,540.00
2024-01-06T11:39:00.046Z,542.00
2024-01-06T11:40:00.156Z,542.00
2024-01-06T11:41:00.192Z,543.00
2024-01-06T11:42:00.268Z,545.00
2024-01-06T11:43:00.432Z,545.00
2024-01-06T11:44:00.393Z,544.00
2024-01-06T11:45:00.549Z,542.00
2024-01-06T11:46:00.548Z,541.00
2024-01-06T11:47:00.570Z,541.00
2024-01-06T11:48:00.741Z,540.00
2024-01-06T11:49:00.829Z,540.00
2024-01-06T11:50:00.853Z,542.00
2024-01-06T11:51:00.852Z,537.00
2024-01-06T11:52:00.976Z,538.00
2024-01-06T11:53:01.089Z,535.00
2024-01-06T11:54:01.436Z,535.00
2024-01-06T11:55:01.224Z,537.00
2024-01-06T11:56:01.180Z,539.00
2024-01-06T11:57:01.261Z,538.00
2024-01-06T11:58:01.361Z,539.00
2024-01-06T11:59:01.353Z,540.00
2024-01-06T12:00:01.428Z,540.00
2024-01-06T12:01:01.668Z,536.00
2024-01-06T12:02:01.653Z,533.00
2024-01-06T12:03:01.599Z,534.00
2024-01-06T12:04:01.773Z,536.00
2024-01-06T12:05:01.821Z,537.00
2024-01-06T12:06:01.887Z,538.00
2024-01-06T12:07:01.932Z,537.00
2024-01-06T12:08:01.983Z,537.00
2024-01-06T12:09:02.045Z,537.00
2024-01-06T12:10:02.247Z,537.00
2024-01-06T12:11:02.214Z,538.00
2024-01-06T12:12:02.261Z,538.00
2024-01-06T12:13:02.367Z,538.00
2024-01-06T12:14:02.388Z,540.00
2024-01-06T12:15:02.449Z,539.00
2024-01-06T12:16:02.618Z,539.00
2024-01-06T12:17:02.582Z,541.00
2024-01-06T12:18:02.687Z,542.00
2024-01-06T12:19:02.774Z,544.00
2024-01-06T12:20:02.917Z,541.00
2024-01-06T12:21:02.980Z,538.00
2024-01-06T12:22:03.013Z,536.00
2024-01-06T12:23:02.991Z,535.00
2024-01-06T12:24:03.027Z,537.00
2024-01-06T12:25:03.102Z,537.00
2024-01-06T12:26:03.132Z,537.00
2024-01-06T12:27:03.253Z,538.00
2024-01-06T12:28:03.333Z,537.00
2024-01-06T12:29:03.462Z,537.00